sensor_id;sensor_type;location;lat;lon;timestamp;temperature;humidity
14798;DHT22;7490;63.708;20.368;2023-04-15T00:00:49;0.40;62.10
14798;DHT22;7490;63.708;20.368;2023-04-15T00:03:16;0.30;62.00
14798;DHT22;7490;63.708;20.368;2023-04-15T00:05:43;0.20;62.10
14798;DHT22;7490;63.708;20.368;2023-04-15T00:08:09;0.20;62.20
14798;DHT22;7490;63.708;20.368;2023-04-15T00:10:34;0.10;62.20
14798;DHT22;7490;63.708;20.368;2023-04-15T00:13:00;0.10;62.30
14798;DHT22;7490;63.708;20.368;2023-04-15T00:15:27;0.00;62.30
14798;DHT22;7490;63.708;20.368;2023-04-15T00:17:52;0.00;62.50
14798;DHT22;7490;63.708;20.368;2023-04-15T00:20:18;-0.10;62.60
14798;DHT22;7490;63.708;20.368;2023-04-15T00:22:44;-0.10;62.70
14798;DHT22;7490;63.708;20.368;2023-04-15T00:25:10;-0.20;62.70
14798;DHT22;7490;63.708;20.368;2023-04-15T00:27:36;0.00;62.90
14798;DHT22;7490;63.708;20.368;2023-04-15T00:30:03;-0.30;62.80
14798;DHT22;7490;63.708;20.368;2023-04-15T00:32:29;-0.30;62.90
14798;DHT22;7490;63.708;20.368;2023-04-15T00:34:55;-0.40;62.90
14798;DHT22;7490;63.708;20.368;2023-04-15T00:37:21;-0.40;63.00
14798;DHT22;7490;63.708;20.368;2023-04-15T00:39:48;-0.40;63.10
14798;DHT22;7490;63.708;20.368;2023-04-15T00:42:14;-0.50;63.20
14798;DHT22;7490;63.708;20.368;2023-04-15T00:44:40;-0.50;63.20
14798;DHT22;7490;63.708;20.368;2023-04-15T00:47:05;-0.60;63.30
14798;DHT22;7490;63.708;20.368;2023-04-15T00:49:31;-0.60;64.10
14798;DHT22;7490;63.708;20.368;2023-04-15T00:51:57;-0.60;63.50
14798;DHT22;7490;63.708;20.368;2023-04-15T00:54:23;-0.60;63.50
14798;DHT22;7490;63.708;20.368;2023-04-15T00:56:48;-0.60;63.50
14798;DHT22;7490;63.708;20.368;2023-04-15T00:59:14;-0.70;63.50
14798;DHT22;7490;63.708;20.368;2023-04-15T01:01:43;-0.70;63.60
14798;DHT22;7490;63.708;20.368;2023-04-15T01:04:09;-0.70;63.80
14798;DHT22;7490;63.708;20.368;2023-04-15T01:06:37;-0.80;63.80
14798;DHT22;7490;63.708;20.368;2023-04-15T01:09:02;-0.80;63.80
14798;DHT22;7490;63.708;20.368;2023-04-15T01:11:29;-0.80;63.90
14798;DHT22;7490;63.708;20.368;2023-04-15T01:13:57;-0.80;64.10
14798;DHT22;7490;63.708;20.368;2023-04-15T01:16:23;-0.80;64.10
14798;DHT22;7490;63.708;20.368;2023-04-15T01:18:49;-0.80;64.10
14798;DHT22;7490;63.708;20.368;2023-04-15T01:21:14;-0.90;64.20
14798;DHT22;7490;63.708;20.368;2023-04-15T01:23:40;-0.90;64.20
14798;DHT22;7490;63.708;20.368;2023-04-15T01:26:07;-0.90;64.20
14798;DHT22;7490;63.708;20.368;2023-04-15T01:28:34;-1.00;64.10
14798;DHT22;7490;63.708;20.368;2023-04-15T01:31:13;-1.00;64.20
14798;DHT22;7490;63.708;20.368;2023-04-15T01:33:41;-1.00;64.40
14798;DHT22;7490;63.708;20.368;2023-04-15T01:36:08;-1.00;64.60
14798;DHT22;7490;63.708;20.368;2023-04-15T01:38:35;-1.10;64.60
14798;DHT22;7490;63.708;20.368;2023-04-15T01:41:01;-1.10;64.70
14798;DHT22;7490;63.708;20.368;2023-04-15T01:43:28;-1.00;64.70
14798;DHT22;7490;63.708;20.368;2023-04-15T01:45:55;-1.10;64.70
14798;DHT22;7490;63.708;20.368;2023-04-15T01:48:21;-1.20;64.60
14798;DHT22;7490;63.708;20.368;2023-04-15T01:50:47;-1.20;64.70
14798;DHT22;7490;63.708;20.368;2023-04-15T01:53:13;-1.20;64.80
14798;DHT22;7490;63.708;20.368;2023-04-15T01:55:40;-1.30;64.80
14798;DHT22;7490;63.708;20.368;2023-04-15T01:58:06;-1.30;64.80
14798;DHT22;7490;63.708;20.368;2023-04-15T02:00:32;-1.30;64.70
14798;DHT22;7490;63.708;20.368;2023-04-15T02:02:57;-1.30;64.70
14798;DHT22;7490;63.708;20.368;2023-04-15T02:05:24;-1.40;64.70
14798;DHT22;7490;63.708;20.368;2023-04-15T02:07:50;-1.40;64.70
14798;DHT22;7490;63.708;20.368;2023-04-15T02:10:15;-1.50;64.80
14798;DHT22;7490;63.708;20.368;2023-04-15T02:12:41;-1.50;64.90
14798;DHT22;7490;63.708;20.368;2023-04-15T02:15:08;-1.50;65.00
14798;DHT22;7490;63.708;20.368;2023-04-15T02:17:35;-1.50;65.20
14798;DHT22;7490;63.708;20.368;2023-04-15T02:20:01;-1.60;65.20
14798;DHT22;7490;63.708;20.368;2023-04-15T02:22:27;-1.60;65.20
14798;DHT22;7490;63.708;20.368;2023-04-15T02:24:53;-1.60;65.20
14798;DHT22;7490;63.708;20.368;2023-04-15T02:27:19;-1.60;65.30
14798;DHT22;7490;63.708;20.368;2023-04-15T02:29:45;-1.60;65.30
14798;DHT22;7490;63.708;20.368;2023-04-15T02:32:13;-1.60;65.50
14798;DHT22;7490;63.708;20.368;2023-04-15T02:34:39;-1.60;65.70
14798;DHT22;7490;63.708;20.368;2023-04-15T02:37:07;-1.50;65.90
14798;DHT22;7490;63.708;20.368;2023-04-15T02:39:33;-1.70;65.80
14798;DHT22;7490;63.708;20.368;2023-04-15T02:41:59;-1.60;65.80
14798;DHT22;7490;63.708;20.368;2023-04-15T02:44:25;-1.60;66.00
14798;DHT22;7490;63.708;20.368;2023-04-15T02:46:52;-1.50;66.10
14798;DHT22;7490;63.708;20.368;2023-04-15T02:49:19;-1.60;65.90
14798;DHT22;7490;63.708;20.368;2023-04-15T02:51:45;-1.60;66.00
14798;DHT22;7490;63.708;20.368;2023-04-15T02:54:18;-1.60;66.10
14798;DHT22;7490;63.708;20.368;2023-04-15T02:56:44;-1.60;66.20
14798;DHT22;7490;63.708;20.368;2023-04-15T02:59:11;-1.60;66.10
14798;DHT22;7490;63.708;20.368;2023-04-15T03:01:37;-1.60;66.20
14798;DHT22;7490;63.708;20.368;2023-04-15T03:04:03;-1.60;66.20
14798;DHT22;7490;63.708;20.368;2023-04-15T03:06:28;-1.50;66.50
14798;DHT22;7490;63.708;20.368;2023-04-15T03:08:54;-1.50;66.50
14798;DHT22;7490;63.708;20.368;2023-04-15T03:11:21;-1.50;66.50
14798;DHT22;7490;63.708;20.368;2023-04-15T03:13:47;-1.20;66.60
14798;DHT22;7490;63.708;20.368;2023-04-15T03:16:13;-1.40;66.50
14798;DHT22;7490;63.708;20.368;2023-04-15T03:18:38;-1.40;66.60
14798;DHT22;7490;63.708;20.368;2023-04-15T03:21:04;-1.30;66.70
14798;DHT22;7490;63.708;20.368;2023-04-15T03:23:31;-1.30;66.70
14798;DHT22;7490;63.708;20.368;2023-04-15T03:25:57;-1.30;66.60
14798;DHT22;7490;63.708;20.368;2023-04-15T03:28:24;-1.30;66.50
14798;DHT22;7490;63.708;20.368;2023-04-15T03:30:50;-1.20;66.40
14798;DHT22;7490;63.708;20.368;2023-04-15T03:33:15;-1.20;66.50
14798;DHT22;7490;63.708;20.368;2023-04-15T03:35:41;-1.20;66.50
14798;DHT22;7490;63.708;20.368;2023-04-15T03:38:07;-1.00;66.80
14798;DHT22;7490;63.708;20.368;2023-04-15T03:40:33;-1.00;67.20
14798;DHT22;7490;63.708;20.368;2023-04-15T03:42:58;-0.50;68.30
14798;DHT22;7490;63.708;20.368;2023-04-15T03:45:24;-0.40;68.40
14798;DHT22;7490;63.708;20.368;2023-04-15T03:47:50;0.10;68.50
14798;DHT22;7490;63.708;20.368;2023-04-15T03:50:16;0.40;67.80
14798;DHT22;7490;63.708;20.368;2023-04-15T03:52:43;0.60;67.20
14798;DHT22;7490;63.708;20.368;2023-04-15T03:55:08;0.70;66.40
14798;DHT22;7490;63.708;20.368;2023-04-15T03:57:34;1.00;67.00
14798;DHT22;7490;63.708;20.368;2023-04-15T04:00:03;1.50;67.60
14798;DHT22;7490;63.708;20.368;2023-04-15T04:02:29;2.10;67.60
14798;DHT22;7490;63.708;20.368;2023-04-15T04:04:55;2.70;66.90
14798;DHT22;7490;63.708;20.368;2023-04-15T04:07:23;3.40;66.20
14798;DHT22;7490;63.708;20.368;2023-04-15T04:09:49;4.10;65.40
14798;DHT22;7490;63.708;20.368;2023-04-15T04:12:15;4.90;64.60
14798;DHT22;7490;63.708;20.368;2023-04-15T04:14:41;5.60;63.70
14798;DHT22;7490;63.708;20.368;2023-04-15T04:17:06;6.20;62.30
14798;DHT22;7490;63.708;20.368;2023-04-15T04:19:32;6.80;61.00
14798;DHT22;7490;63.708;20.368;2023-04-15T04:21:58;7.40;60.40
14798;DHT22;7490;63.708;20.368;2023-04-15T04:24:24;7.90;59.50
14798;DHT22;7490;63.708;20.368;2023-04-15T04:26:50;8.40;58.20
14798;DHT22;7490;63.708;20.368;2023-04-15T04:29:15;8.80;57.20
14798;DHT22;7490;63.708;20.368;2023-04-15T04:31:41;9.10;56.50
14798;DHT22;7490;63.708;20.368;2023-04-15T04:34:07;9.50;56.30
14798;DHT22;7490;63.708;20.368;2023-04-15T04:36:32;9.90;55.70
14798;DHT22;7490;63.708;20.368;2023-04-15T04:38:58;10.50;54.90
14798;DHT22;7490;63.708;20.368;2023-04-15T04:41:25;11.00;54.10
14798;DHT22;7490;63.708;20.368;2023-04-15T04:43:51;11.40;53.20
14798;DHT22;7490;63.708;20.368;2023-04-15T04:46:17;11.80;52.10
14798;DHT22;7490;63.708;20.368;2023-04-15T04:48:42;12.10;50.90
14798;DHT22;7490;63.708;20.368;2023-04-15T04:51:08;12.30;50.30
14798;DHT22;7490;63.708;20.368;2023-04-15T04:53:34;12.60;49.90
14798;DHT22;7490;63.708;20.368;2023-04-15T04:56:02;13.10;49.50
14798;DHT22;7490;63.708;20.368;2023-04-15T04:58:27;13.60;48.80
14798;DHT22;7490;63.708;20.368;2023-04-15T05:00:53;13.90;47.80
14798;DHT22;7490;63.708;20.368;2023-04-15T05:03:19;14.20;46.50
14798;DHT22;7490;63.708;20.368;2023-04-15T05:05:45;14.30;45.90
14798;DHT22;7490;63.708;20.368;2023-04-15T05:08:10;14.60;45.60
14798;DHT22;7490;63.708;20.368;2023-04-15T05:10:36;14.80;45.00
14798;DHT22;7490;63.708;20.368;2023-04-15T05:13:02;15.20;44.50
14798;DHT22;7490;63.708;20.368;2023-04-15T05:15:28;15.40;43.70
14798;DHT22;7490;63.708;20.368;2023-04-15T05:17:53;15.60;43.00
14798;DHT22;7490;63.708;20.368;2023-04-15T05:20:19;15.70;42.20
14798;DHT22;7490;63.708;20.368;2023-04-15T05:22:45;15.70;42.00
14798;DHT22;7490;63.708;20.368;2023-04-15T05:25:10;15.80;41.60
14798;DHT22;7490;63.708;20.368;2023-04-15T05:27:36;16.10;41.40
14798;DHT22;7490;63.708;20.368;2023-04-15T05:30:02;16.30;40.80
14798;DHT22;7490;63.708;20.368;2023-04-15T05:32:28;16.50;40.10
14798;DHT22;7490;63.708;20.368;2023-04-15T05:34:54;16.70;39.80
14798;DHT22;7490;63.708;20.368;2023-04-15T05:37:20;16.90;39.70
14798;DHT22;7490;63.708;20.368;2023-04-15T05:39:46;17.10;39.30
14798;DHT22;7490;63.708;20.368;2023-04-15T05:42:13;17.30;38.80
14798;DHT22;7490;63.708;20.368;2023-04-15T05:44:38;17.60;38.50
14798;DHT22;7490;63.708;20.368;2023-04-15T05:47:04;17.90;38.00
14798;DHT22;7490;63.708;20.368;2023-04-15T05:49:31;18.10;37.50
14798;DHT22;7490;63.708;20.368;2023-04-15T05:51:57;18.10;36.70
14798;DHT22;7490;63.708;20.368;2023-04-15T05:54:23;17.90;36.80
14798;DHT22;7490;63.708;20.368;2023-04-15T05:56:49;17.90;36.50
14798;DHT22;7490;63.708;20.368;2023-04-15T05:59:15;18.00;36.30
14798;DHT22;7490;63.708;20.368;2023-04-15T06:01:41;17.90;35.70
14798;DHT22;7490;63.708;20.368;2023-04-15T06:04:07;17.90;35.80
14798;DHT22;7490;63.708;20.368;2023-04-15T06:06:32;17.90;35.40
14798;DHT22;7490;63.708;20.368;2023-04-15T06:08:59;18.00;35.50
14798;DHT22;7490;63.708;20.368;2023-04-15T06:11:24;18.20;35.10
14798;DHT22;7490;63.708;20.368;2023-04-15T06:13:51;18.20;34.70
14798;DHT22;7490;63.708;20.368;2023-04-15T06:16:17;18.10;34.30
14798;DHT22;7490;63.708;20.368;2023-04-15T06:18:43;17.90;34.30
14798;DHT22;7490;63.708;20.368;2023-04-15T06:21:09;17.90;34.50
14798;DHT22;7490;63.708;20.368;2023-04-15T06:23:35;17.90;34.50
14798;DHT22;7490;63.708;20.368;2023-04-15T06:26:01;17.80;34.50
14798;DHT22;7490;63.708;20.368;2023-04-15T06:28:27;18.00;34.80
14798;DHT22;7490;63.708;20.368;2023-04-15T06:30:53;18.50;34.60
14798;DHT22;7490;63.708;20.368;2023-04-15T06:33:19;19.10;33.90
14798;DHT22;7490;63.708;20.368;2023-04-15T06:35:45;19.40;33.20
14798;DHT22;7490;63.708;20.368;2023-04-15T06:38:11;19.60;32.80
14798;DHT22;7490;63.708;20.368;2023-04-15T06:40:37;19.80;33.20
14798;DHT22;7490;63.708;20.368;2023-04-15T06:43:03;20.00;32.00
14798;DHT22;7490;63.708;20.368;2023-04-15T06:45:29;20.20;32.00
14798;DHT22;7490;63.708;20.368;2023-04-15T06:47:55;20.30;31.30
14798;DHT22;7490;63.708;20.368;2023-04-15T06:50:21;20.30;31.20
14798;DHT22;7490;63.708;20.368;2023-04-15T06:52:47;20.50;31.00
14798;DHT22;7490;63.708;20.368;2023-04-15T06:55:13;20.40;30.60
14798;DHT22;7490;63.708;20.368;2023-04-15T06:57:39;20.40;30.50
14798;DHT22;7490;63.708;20.368;2023-04-15T07:00:07;20.20;30.30
14798;DHT22;7490;63.708;20.368;2023-04-15T07:02:35;20.40;30.70
14798;DHT22;7490;63.708;20.368;2023-04-15T07:05:01;20.60;30.30
14798;DHT22;7490;63.708;20.368;2023-04-15T07:07:27;20.70;29.80
14798;DHT22;7490;63.708;20.368;2023-04-15T07:09:53;20.70;30.00
14798;DHT22;7490;63.708;20.368;2023-04-15T07:12:19;20.90;29.80
14798;DHT22;7490;63.708;20.368;2023-04-15T07:14:44;21.20;29.70
14798;DHT22;7490;63.708;20.368;2023-04-15T07:17:10;21.20;29.20
14798;DHT22;7490;63.708;20.368;2023-04-15T07:19:36;21.00;29.00
14798;DHT22;7490;63.708;20.368;2023-04-15T07:22:02;20.70;29.20
14798;DHT22;7490;63.708;20.368;2023-04-15T07:24:28;20.50;29.40
14798;DHT22;7490;63.708;20.368;2023-04-15T07:26:54;20.30;29.40
14798;DHT22;7490;63.708;20.368;2023-04-15T07:29:22;20.20;29.40
14798;DHT22;7490;63.708;20.368;2023-04-15T07:31:47;20.10;29.30
14798;DHT22;7490;63.708;20.368;2023-04-15T07:34:13;20.10;29.60
14798;DHT22;7490;63.708;20.368;2023-04-15T07:36:39;20.30;29.40
14798;DHT22;7490;63.708;20.368;2023-04-15T07:39:05;20.20;29.30
14798;DHT22;7490;63.708;20.368;2023-04-15T07:41:30;20.30;29.30
14798;DHT22;7490;63.708;20.368;2023-04-15T07:43:56;20.20;28.80
14798;DHT22;7490;63.708;20.368;2023-04-15T07:46:22;19.90;28.90
14798;DHT22;7490;63.708;20.368;2023-04-15T07:48:49;19.80;29.00
14798;DHT22;7490;63.708;20.368;2023-04-15T07:51:15;19.90;29.20
14798;DHT22;7490;63.708;20.368;2023-04-15T07:53:42;20.10;28.90
14798;DHT22;7490;63.708;20.368;2023-04-15T07:56:09;20.10;28.60
14798;DHT22;7490;63.708;20.368;2023-04-15T07:58:34;19.90;28.50
14798;DHT22;7490;63.708;20.368;2023-04-15T08:01:00;19.90;28.60
14798;DHT22;7490;63.708;20.368;2023-04-15T08:03:26;19.90;28.80
14798;DHT22;7490;63.708;20.368;2023-04-15T08:05:52;20.30;28.80
14798;DHT22;7490;63.708;20.368;2023-04-15T08:08:18;20.30;28.70
14798;DHT22;7490;63.708;20.368;2023-04-15T08:10:44;20.60;28.40
14798;DHT22;7490;63.708;20.368;2023-04-15T08:13:10;20.70;28.30
14798;DHT22;7490;63.708;20.368;2023-04-15T08:15:36;20.90;28.10
14798;DHT22;7490;63.708;20.368;2023-04-15T08:18:02;20.80;28.00
14798;DHT22;7490;63.708;20.368;2023-04-15T08:20:28;21.10;28.10
14798;DHT22;7490;63.708;20.368;2023-04-15T08:22:54;21.30;27.90
14798;DHT22;7490;63.708;20.368;2023-04-15T08:25:20;21.20;27.60
14798;DHT22;7490;63.708;20.368;2023-04-15T08:27:46;21.00;27.50
14798;DHT22;7490;63.708;20.368;2023-04-15T08:30:12;20.90;27.60
14798;DHT22;7490;63.708;20.368;2023-04-15T08:32:38;20.70;27.40
14798;DHT22;7490;63.708;20.368;2023-04-15T08:35:04;20.50;27.40
14798;DHT22;7490;63.708;20.368;2023-04-15T08:37:30;20.50;27.70
14798;DHT22;7490;63.708;20.368;2023-04-15T08:39:56;20.60;27.60
14798;DHT22;7490;63.708;20.368;2023-04-15T08:42:30;20.80;27.70
14798;DHT22;7490;63.708;20.368;2023-04-15T08:44:58;21.10;27.30
14798;DHT22;7490;63.708;20.368;2023-04-15T08:47:29;21.30;27.10
14798;DHT22;7490;63.708;20.368;2023-04-15T08:49:57;21.70;27.20
14798;DHT22;7490;63.708;20.368;2023-04-15T08:52:26;22.10;26.70
14798;DHT22;7490;63.708;20.368;2023-04-15T08:54:55;22.30;26.40
14798;DHT22;7490;63.708;20.368;2023-04-15T08:57:25;22.50;26.40
14798;DHT22;7490;63.708;20.368;2023-04-15T08:59:52;22.60;26.30
14798;DHT22;7490;63.708;20.368;2023-04-15T09:02:20;22.60;26.20
14798;DHT22;7490;63.708;20.368;2023-04-15T09:04:46;22.20;26.20
14798;DHT22;7490;63.708;20.368;2023-04-15T09:07:12;21.80;26.20
14798;DHT22;7490;63.708;20.368;2023-04-15T09:09:37;21.40;26.40
14798;DHT22;7490;63.708;20.368;2023-04-15T09:12:04;21.10;26.60
14798;DHT22;7490;63.708;20.368;2023-04-15T09:14:30;20.80;26.90
14798;DHT22;7490;63.708;20.368;2023-04-15T09:17:03;20.40;26.90
14798;DHT22;7490;63.708;20.368;2023-04-15T09:19:29;20.30;27.40
14798;DHT22;7490;63.708;20.368;2023-04-15T09:21:57;20.40;27.50
14798;DHT22;7490;63.708;20.368;2023-04-15T09:24:24;20.30;27.30
14798;DHT22;7490;63.708;20.368;2023-04-15T09:26:52;20.00;27.30
14798;DHT22;7490;63.708;20.368;2023-04-15T09:29:25;19.60;27.40
14798;DHT22;7490;63.708;20.368;2023-04-15T09:31:53;19.40;27.70
14798;DHT22;7490;63.708;20.368;2023-04-15T09:34:19;19.30;27.80
14798;DHT22;7490;63.708;20.368;2023-04-15T09:39:11;19.00;27.90
14798;DHT22;7490;63.708;20.368;2023-04-15T09:41:37;19.00;27.90
14798;DHT22;7490;63.708;20.368;2023-04-15T09:44:03;18.80;27.80
14798;DHT22;7490;63.708;20.368;2023-04-15T09:46:45;18.50;27.80
14798;DHT22;7490;63.708;20.368;2023-04-15T09:49:11;18.30;27.90
14798;DHT22;7490;63.708;20.368;2023-04-15T09:51:37;18.30;28.20
14798;DHT22;7490;63.708;20.368;2023-04-15T09:54:04;18.30;28.10
14798;DHT22;7490;63.708;20.368;2023-04-15T09:56:37;18.30;28.20
14798;DHT22;7490;63.708;20.368;2023-04-15T09:59:09;18.40;28.10
14798;DHT22;7490;63.708;20.368;2023-04-15T10:01:34;18.30;28.00
14798;DHT22;7490;63.708;20.368;2023-04-15T10:04:05;18.10;28.10
14798;DHT22;7490;63.708;20.368;2023-04-15T10:06:31;17.90;28.00
14798;DHT22;7490;63.708;20.368;2023-04-15T10:08:59;17.80;28.30
14798;DHT22;7490;63.708;20.368;2023-04-15T10:11:29;17.70;28.30
14798;DHT22;7490;63.708;20.368;2023-04-15T10:13:56;17.70;28.30
14798;DHT22;7490;63.708;20.368;2023-04-15T10:16:28;17.70;28.20
14798;DHT22;7490;63.708;20.368;2023-04-15T10:19:00;17.60;28.20
14798;DHT22;7490;63.708;20.368;2023-04-15T10:21:27;17.40;28.20
14798;DHT22;7490;63.708;20.368;2023-04-15T10:23:55;17.40;28.60
14798;DHT22;7490;63.708;20.368;2023-04-15T10:26:21;17.40;28.40
14798;DHT22;7490;63.708;20.368;2023-04-15T10:28:47;17.30;28.40
14798;DHT22;7490;63.708;20.368;2023-04-15T10:31:14;17.20;28.40
14798;DHT22;7490;63.708;20.368;2023-04-15T10:33:41;17.10;28.40
14798;DHT22;7490;63.708;20.368;2023-04-15T10:36:07;17.10;28.30
14798;DHT22;7490;63.708;20.368;2023-04-15T10:38:40;17.00;28.30
14798;DHT22;7490;63.708;20.368;2023-04-15T10:46:23;16.30;28.20
14798;DHT22;7490;63.708;20.368;2023-04-15T10:49:12;16.00;28.30
14798;DHT22;7490;63.708;20.368;2023-04-15T10:51:43;15.80;28.50
14798;DHT22;7490;63.708;20.368;2023-04-15T10:54:30;15.80;28.80
14798;DHT22;7490;63.708;20.368;2023-04-15T10:59:31;15.50;28.80
14798;DHT22;7490;63.708;20.368;2023-04-15T11:02:01;15.30;28.90
14798;DHT22;7490;63.708;20.368;2023-04-15T11:04:56;15.10;29.10
14798;DHT22;7490;63.708;20.368;2023-04-15T11:15:35;14.50;30.20
14798;DHT22;7490;63.708;20.368;2023-04-15T11:18:22;14.30;29.80
14798;DHT22;7490;63.708;20.368;2023-04-15T11:23:32;12.40;30.80
14798;DHT22;7490;63.708;20.368;2023-04-15T11:25:59;11.30;32.00
14798;DHT22;7490;63.708;20.368;2023-04-15T11:28:29;10.50;33.20
14798;DHT22;7490;63.708;20.368;2023-04-15T11:30:56;9.90;34.30
14798;DHT22;7490;63.708;20.368;2023-04-15T11:33:22;9.50;35.20
14798;DHT22;7490;63.708;20.368;2023-04-15T11:35:49;9.10;35.90
14798;DHT22;7490;63.708;20.368;2023-04-15T11:38:15;8.80;36.40
14798;DHT22;7490;63.708;20.368;2023-04-15T11:40:42;8.70;36.90
14798;DHT22;7490;63.708;20.368;2023-04-15T11:43:09;8.50;37.20
14798;DHT22;7490;63.708;20.368;2023-04-15T11:45:36;8.40;37.60
14798;DHT22;7490;63.708;20.368;2023-04-15T11:48:10;8.20;37.90
14798;DHT22;7490;63.708;20.368;2023-04-15T11:50:36;8.20;38.20
14798;DHT22;7490;63.708;20.368;2023-04-15T11:53:07;8.10;38.20
14798;DHT22;7490;63.708;20.368;2023-04-15T11:55:44;8.10;38.60
14798;DHT22;7490;63.708;20.368;2023-04-15T11:58:12;8.10;39.10
14798;DHT22;7490;63.708;20.368;2023-04-15T12:00:39;8.20;39.20
14798;DHT22;7490;63.708;20.368;2023-04-15T12:03:13;8.20;39.30
14798;DHT22;7490;63.708;20.368;2023-04-15T12:06:08;8.30;39.30
14798;DHT22;7490;63.708;20.368;2023-04-15T12:08:58;8.30;39.30
14798;DHT22;7490;63.708;20.368;2023-04-15T12:11:49;8.40;39.50
14798;DHT22;7490;63.708;20.368;2023-04-15T12:14:28;8.40;39.40
14798;DHT22;7490;63.708;20.368;2023-04-15T12:16:59;8.50;39.50
14798;DHT22;7490;63.708;20.368;2023-04-15T12:22:03;8.40;39.60
14798;DHT22;7490;63.708;20.368;2023-04-15T12:24:33;8.40;39.80
14798;DHT22;7490;63.708;20.368;2023-04-15T12:27:07;8.40;39.90
14798;DHT22;7490;63.708;20.368;2023-04-15T12:29:35;8.40;40.00
14798;DHT22;7490;63.708;20.368;2023-04-15T12:32:16;8.40;40.00
14798;DHT22;7490;63.708;20.368;2023-04-15T12:34:47;8.40;40.20
14798;DHT22;7490;63.708;20.368;2023-04-15T12:37:14;8.40;40.10
14798;DHT22;7490;63.708;20.368;2023-04-15T12:39:42;8.30;40.80
14798;DHT22;7490;63.708;20.368;2023-04-15T12:42:09;8.20;40.20
14798;DHT22;7490;63.708;20.368;2023-04-15T12:44:36;8.20;40.40
14798;DHT22;7490;63.708;20.368;2023-04-15T12:47:03;8.20;40.60
14798;DHT22;7490;63.708;20.368;2023-04-15T12:49:29;8.20;40.80
14798;DHT22;7490;63.708;20.368;2023-04-15T12:51:55;8.20;41.00
14798;DHT22;7490;63.708;20.368;2023-04-15T12:54:22;8.30;41.10
14798;DHT22;7490;63.708;20.368;2023-04-15T12:56:49;8.40;41.30
14798;DHT22;7490;63.708;20.368;2023-04-15T12:59:16;8.40;41.10
14798;DHT22;7490;63.708;20.368;2023-04-15T13:01:45;8.40;41.10
14798;DHT22;7490;63.708;20.368;2023-04-15T13:04:11;8.30;41.20
14798;DHT22;7490;63.708;20.368;2023-04-15T13:06:37;8.30;41.50
14798;DHT22;7490;63.708;20.368;2023-04-15T13:09:03;8.40;42.20
14798;DHT22;7490;63.708;20.368;2023-04-15T13:11:29;8.40;41.70
14798;DHT22;7490;63.708;20.368;2023-04-15T13:13:56;8.50;41.60
14798;DHT22;7490;63.708;20.368;2023-04-15T13:16:25;8.40;41.50
14798;DHT22;7490;63.708;20.368;2023-04-15T13:18:51;8.50;41.70
14798;DHT22;7490;63.708;20.368;2023-04-15T13:21:17;8.50;41.70
14798;DHT22;7490;63.708;20.368;2023-04-15T13:23:43;8.50;41.60
14798;DHT22;7490;63.708;20.368;2023-04-15T13:26:09;8.50;41.60
14798;DHT22;7490;63.708;20.368;2023-04-15T13:28:34;8.50;41.50
14798;DHT22;7490;63.708;20.368;2023-04-15T13:31:00;8.40;41.50
14798;DHT22;7490;63.708;20.368;2023-04-15T13:33:26;8.40;41.50
14798;DHT22;7490;63.708;20.368;2023-04-15T13:35:52;8.40;41.60
14798;DHT22;7490;63.708;20.368;2023-04-15T13:38:18;8.30;41.70
14798;DHT22;7490;63.708;20.368;2023-04-15T13:40:44;8.30;41.80
14798;DHT22;7490;63.708;20.368;2023-04-15T13:43:09;8.30;42.00
14798;DHT22;7490;63.708;20.368;2023-04-15T13:45:36;8.30;42.10
14798;DHT22;7490;63.708;20.368;2023-04-15T13:48:02;8.30;42.00
14798;DHT22;7490;63.708;20.368;2023-04-15T13:50:28;8.30;42.10
14798;DHT22;7490;63.708;20.368;2023-04-15T13:52:53;8.20;42.20
14798;DHT22;7490;63.708;20.368;2023-04-15T13:55:19;8.10;42.30
14798;DHT22;7490;63.708;20.368;2023-04-15T13:57:45;8.10;42.30
14798;DHT22;7490;63.708;20.368;2023-04-15T14:00:11;8.00;42.30
14798;DHT22;7490;63.708;20.368;2023-04-15T14:02:37;7.90;42.40
14798;DHT22;7490;63.708;20.368;2023-04-15T14:05:02;7.90;42.50
14798;DHT22;7490;63.708;20.368;2023-04-15T14:07:29;7.80;42.60
14798;DHT22;7490;63.708;20.368;2023-04-15T14:09:55;7.70;42.80
14798;DHT22;7490;63.708;20.368;2023-04-15T14:12:21;7.70;43.00
14798;DHT22;7490;63.708;20.368;2023-04-15T14:14:47;7.60;42.80
14798;DHT22;7490;63.708;20.368;2023-04-15T14:17:12;7.50;42.80
14798;DHT22;7490;63.708;20.368;2023-04-15T14:19:38;7.50;42.90
14798;DHT22;7490;63.708;20.368;2023-04-15T14:22:04;7.40;42.90
14798;DHT22;7490;63.708;20.368;2023-04-15T14:24:30;7.40;42.90
14798;DHT22;7490;63.708;20.368;2023-04-15T14:26:56;7.40;43.00
14798;DHT22;7490;63.708;20.368;2023-04-15T14:29:22;7.40;42.90
14798;DHT22;7490;63.708;20.368;2023-04-15T14:31:47;7.30;42.80
14798;DHT22;7490;63.708;20.368;2023-04-15T14:34:15;7.30;42.70
14798;DHT22;7490;63.708;20.368;2023-04-15T14:36:41;7.20;42.50
14798;DHT22;7490;63.708;20.368;2023-04-15T14:39:07;7.10;42.40
14798;DHT22;7490;63.708;20.368;2023-04-15T14:41:33;7.10;42.40
14798;DHT22;7490;63.708;20.368;2023-04-15T14:43:59;7.00;42.40
14798;DHT22;7490;63.708;20.368;2023-04-15T14:46:25;7.00;42.30
14798;DHT22;7490;63.708;20.368;2023-04-15T14:48:51;7.00;42.50
14798;DHT22;7490;63.708;20.368;2023-04-15T14:51:17;7.00;42.60
14798;DHT22;7490;63.708;20.368;2023-04-15T14:53:43;7.00;42.60
14798;DHT22;7490;63.708;20.368;2023-04-15T14:56:10;7.00;42.70
14798;DHT22;7490;63.708;20.368;2023-04-15T14:58:36;7.00;42.70
14798;DHT22;7490;63.708;20.368;2023-04-15T15:01:03;7.00;42.70
14798;DHT22;7490;63.708;20.368;2023-04-15T15:03:29;7.00;43.10
14798;DHT22;7490;63.708;20.368;2023-04-15T15:05:55;7.10;42.90
14798;DHT22;7490;63.708;20.368;2023-04-15T15:08:22;7.10;42.60
14798;DHT22;7490;63.708;20.368;2023-04-15T15:10:48;7.10;42.50
14798;DHT22;7490;63.708;20.368;2023-04-15T15:13:14;7.10;42.50
14798;DHT22;7490;63.708;20.368;2023-04-15T15:15:40;7.10;42.40
14798;DHT22;7490;63.708;20.368;2023-04-15T15:18:05;7.10;42.20
14798;DHT22;7490;63.708;20.368;2023-04-15T15:20:31;7.00;42.10
14798;DHT22;7490;63.708;20.368;2023-04-15T15:22:59;7.00;42.10
14798;DHT22;7490;63.708;20.368;2023-04-15T15:25:25;6.90;42.20
14798;DHT22;7490;63.708;20.368;2023-04-15T15:27:51;6.90;42.30
14798;DHT22;7490;63.708;20.368;2023-04-15T15:30:17;6.90;42.40
14798;DHT22;7490;63.708;20.368;2023-04-15T15:32:43;6.90;42.30
14798;DHT22;7490;63.708;20.368;2023-04-15T15:35:09;6.90;42.30
14798;DHT22;7490;63.708;20.368;2023-04-15T15:37:36;6.80;42.30
14798;DHT22;7490;63.708;20.368;2023-04-15T15:40:05;6.80;42.30
14798;DHT22;7490;63.708;20.368;2023-04-15T15:42:31;6.80;42.30
14798;DHT22;7490;63.708;20.368;2023-04-15T15:44:57;6.80;42.40
14798;DHT22;7490;63.708;20.368;2023-04-15T15:47:23;6.80;42.50
14798;DHT22;7490;63.708;20.368;2023-04-15T15:49:51;6.80;42.40
14798;DHT22;7490;63.708;20.368;2023-04-15T15:52:16;6.70;42.30
14798;DHT22;7490;63.708;20.368;2023-04-15T15:54:42;6.70;42.30
14798;DHT22;7490;63.708;20.368;2023-04-15T15:57:08;6.70;42.30
14798;DHT22;7490;63.708;20.368;2023-04-15T15:59:34;6.60;42.20